Merriam, Kansas
Current Conditions -  °F | °C
As of 10:54 AM on Tuesday 27 Jan 2015 (Local Time) from KMKC Reporting Station
Clear Clear  
Wind Chill: 42°   Ceiling: Unl
Heat Index: 46°   Visibility: 10mi
Dew Point: 33°   Wind: 7mph
Humidity: 61%   Direction: 80°E
Pressure: 30.18"   Gusts: NA
Location:  38.993°N, 94.6774°W
Report Text: KMKC 271654Z 08006KT 10SM CLR 08/01 A3018 RMK AO2 SLP221 T00780006
Loading
Personal Weather Stations






























Interactive Weather Map New forecast layout! Learn more

10-Day Weather Forecast

Advertisements
Track Severe Weather on mobile